Lebanon, VA

7:27 AM EDT on September 22, 2014 (GMT -0400)
Lonesome Pine | Change Station
CLOSE
Current Station
Airport
Location: Wise,
Elevation: 2684 ft
Nearby Weather Stations

Elev 2684 ft 36.99 °N, 82.53 °W | Updated 12 minutes ago

Partly Cloudy
Partly Cloudy
50 °F
Feels Like 50 °F
N
5
Wind Variable Wind from NW

Today
High -- | Low -- °F
--% Chance of Precip.
Yesterday
High -- | Low -- °F
Precip. -- in
7:16 AM 7:25 PM
Waning Crescent, 3% visible
Pressure 30.14 in
Visibility 10.0 miles
Clouds Overcast 900 ft
Dew Point 50 °F
Humidity 100%
Rainfall 0.00 in
Snow Depth Not available.
UV 0 out of 12
Pollen 5.20 out of 12
Air Quality Not available.
Flu Activity Not available.
METAR KLNP 221115Z AUTO 32004KT 10SM OVC009 10/10 A3014 RMK AO2

More Conditions Fewer Conditions

Pressure 30.14 in
Visibility 10.0 miles
Clouds Overcast 900 ft
Dew Point 50 °F
Humidity 100%
Rainfall 0.00 in
Snow Depth Not available.
UV 0 out of 12
Pollen 5.20 out of 12
Air Quality Not available.
Flu Activity Not available.
METAR KLNP 221115Z AUTO 32004KT 10SM OVC009 10/10 A3014 RMK AO2

More Conditions Fewer Conditions

10-Day Weather Forecast

Almanac

Astronomy

Sep. 22, 2014 Rise Set
Actual Time 7:16 AM EDT 7:25 PM EDT
Civil Twilight 6:50 AM EDT 7:51 PM EDT
Nautical Twilight 6:20 AM EDT 8:21 PM EDT
Astronomical Twilight 5:49 AM EDT 8:51 PM EDT
Moon 5:45 AM EDT 6:31 PM EDT
Length of Visible Light 13h 00m
Length of Day
12h 09m
Tomorrow will be 2m 20s shorter.
Waning Crescent, 3% of the Moon is Illuminated
Today
Waning Crescent
Sep 24
New
Oct 1
First Quarter
Oct 8
Full
Oct 15
Last Quarter

Today's Extremes

State Highs State Lows

Community

WunderPhotos

Upload Photos

1,755,409 photos uploaded!

Nearby

Snow Depth

Station Depth Elevation
No new snow has been reported.

Earthquake Activity

City Distance Mag. Time & Date
No recent earthquake activity has been reported nearby.
Minimum magnitude displayed is 2.5.

Coastal Water Temperatures

Place Temperature
No Stations Reporting

Nearby Weather Stations